sensor_id;sensor_type;location;lat;lon;timestamp;noise_LAeq;noise_LA_min;noise_LA_max;noise_LA01;noise_LA95
76339;Laerm;26644;50.248;19.032;2024-03-02T00:02:40;49.93;46.28;54.51;;
76339;Laerm;26644;50.248;19.032;2024-03-02T00:05:49;50.67;46.75;55.72;;
76339;Laerm;26644;50.248;19.032;2024-03-02T00:08:58;50.49;45.87;55.81;;
76339;Laerm;26644;50.248;19.032;2024-03-02T00:12:03;51.82;47.80;58.18;;
76339;Laerm;26644;50.248;19.032;2024-03-02T00:15:42;50.23;45.58;56.29;;
76339;Laerm;26644;50.248;19.032;2024-03-02T00:18:53;50.06;45.91;54.14;;
76339;Laerm;26644;50.248;19.032;2024-03-02T00:22:01;51.05;45.84;68.73;;
76339;Laerm;26644;50.248;19.032;2024-03-02T00:25:06;53.59;46.93;69.96;;
76339;Laerm;26644;50.248;19.032;2024-03-02T00:28:20;50.72;46.74;69.08;;
76339;Laerm;26644;50.248;19.032;2024-03-02T00:31:24;50.75;46.43;55.86;;
76339;Laerm;26644;50.248;19.032;2024-03-02T00:34:32;51.50;46.40;59.28;;
76339;Laerm;26644;50.248;19.032;2024-03-02T00:37:37;50.31;46.61;56.31;;
76339;Laerm;26644;50.248;19.032;2024-03-02T00:40:43;50.60;45.59;58.41;;
76339;Laerm;26644;50.248;19.032;2024-03-02T00:44:09;51.42;46.67;59.94;;
76339;Laerm;26644;50.248;19.032;2024-03-02T00:47:16;50.92;47.36;56.72;;
76339;Laerm;26644;50.248;19.032;2024-03-02T00:50:23;50.22;45.79;56.03;;
76339;Laerm;26644;50.248;19.032;2024-03-02T00:53:29;50.59;47.03;55.54;;
76339;Laerm;26644;50.248;19.032;2024-03-02T00:56:34;49.71;45.52;57.00;;
76339;Laerm;26644;50.248;19.032;2024-03-02T00:59:39;50.55;46.00;59.21;;
76339;Laerm;26644;50.248;19.032;2024-03-02T01:02:43;50.47;46.23;55.28;;
76339;Laerm;26644;50.248;19.032;2024-03-02T01:05:51;49.14;45.60;54.56;;
76339;Laerm;26644;50.248;19.032;2024-03-02T01:08:55;50.27;46.10;54.27;;
76339;Laerm;26644;50.248;19.032;2024-03-02T01:12:00;49.28;45.74;54.74;;
76339;Laerm;26644;50.248;19.032;2024-03-02T01:15:06;48.94;43.60;55.22;;
76339;Laerm;26644;50.248;19.032;2024-03-02T01:18:11;48.95;44.26;55.19;;
76339;Laerm;26644;50.248;19.032;2024-03-02T01:21:18;48.92;45.17;60.47;;
76339;Laerm;26644;50.248;19.032;2024-03-02T01:24:23;49.37;45.12;60.38;;
76339;Laerm;26644;50.248;19.032;2024-03-02T01:27:27;48.72;44.98;53.38;;
76339;Laerm;26644;50.248;19.032;2024-03-02T01:30:32;50.94;46.63;61.16;;
76339;Laerm;26644;50.248;19.032;2024-03-02T01:33:36;50.72;45.72;56.93;;
76339;Laerm;26644;50.248;19.032;2024-03-02T01:36:44;50.33;44.98;64.18;;
76339;Laerm;26644;50.248;19.032;2024-03-02T01:39:48;50.58;46.66;63.18;;
76339;Laerm;26644;50.248;19.032;2024-03-02T01:42:54;51.67;46.80;61.57;;
76339;Laerm;26644;50.248;19.032;2024-03-02T01:45:59;50.51;45.27;55.78;;
76339;Laerm;26644;50.248;19.032;2024-03-02T01:49:04;49.53;45.48;54.87;;
76339;Laerm;26644;50.248;19.032;2024-03-02T01:52:11;50.51;46.49;57.73;;
76339;Laerm;26644;50.248;19.032;2024-03-02T01:55:16;51.61;47.43;57.13;;
76339;Laerm;26644;50.248;19.032;2024-03-02T01:58:23;49.75;45.40;62.20;;
76339;Laerm;26644;50.248;19.032;2024-03-02T02:01:28;49.02;45.05;56.90;;
76339;Laerm;26644;50.248;19.032;2024-03-02T02:04:32;48.28;44.26;59.25;;
76339;Laerm;26644;50.248;19.032;2024-03-02T02:07:40;48.39;44.15;54.04;;
76339;Laerm;26644;50.248;19.032;2024-03-02T02:10:44;48.95;44.49;55.26;;
76339;Laerm;26644;50.248;19.032;2024-03-02T02:13:49;49.78;45.80;56.85;;
76339;Laerm;26644;50.248;19.032;2024-03-02T02:16:56;49.42;45.32;55.39;;
76339;Laerm;26644;50.248;19.032;2024-03-02T02:20:01;50.25;46.56;60.70;;
76339;Laerm;26644;50.248;19.032;2024-03-02T02:23:09;51.13;45.74;56.98;;
76339;Laerm;26644;50.248;19.032;2024-03-02T02:26:15;50.48;46.54;56.33;;
76339;Laerm;26644;50.248;19.032;2024-03-02T02:29:19;50.05;44.83;56.26;;
76339;Laerm;26644;50.248;19.032;2024-03-02T02:32:24;50.46;45.81;56.02;;
76339;Laerm;26644;50.248;19.032;2024-03-02T02:35:28;50.18;45.89;60.75;;
76339;Laerm;26644;50.248;19.032;2024-03-02T02:38:43;49.12;44.78;54.45;;
76339;Laerm;26644;50.248;19.032;2024-03-02T02:41:48;49.17;44.91;53.75;;
76339;Laerm;26644;50.248;19.032;2024-03-02T02:44:53;49.95;45.99;55.42;;
76339;Laerm;26644;50.248;19.032;2024-03-02T02:47:58;52.91;46.76;62.06;;
76339;Laerm;26644;50.248;19.032;2024-03-02T02:51:04;51.98;47.30;58.03;;
76339;Laerm;26644;50.248;19.032;2024-03-02T02:54:11;50.33;46.27;55.16;;
76339;Laerm;26644;50.248;19.032;2024-03-02T02:57:16;50.25;45.96;55.91;;
76339;Laerm;26644;50.248;19.032;2024-03-02T03:00:20;50.16;46.30;54.70;;
76339;Laerm;26644;50.248;19.032;2024-03-02T03:03:25;50.60;46.08;59.85;;
76339;Laerm;26644;50.248;19.032;2024-03-02T03:06:29;50.49;46.33;55.09;;
76339;Laerm;26644;50.248;19.032;2024-03-02T03:09:37;50.54;45.42;56.38;;
76339;Laerm;26644;50.248;19.032;2024-03-02T03:12:43;50.20;46.02;55.49;;
76339;Laerm;26644;50.248;19.032;2024-03-02T03:15:48;50.82;46.11;55.43;;
76339;Laerm;26644;50.248;19.032;2024-03-02T03:18:52;50.37;46.13;59.45;;
76339;Laerm;26644;50.248;19.032;2024-03-02T03:21:57;49.83;45.56;54.68;;
76339;Laerm;26644;50.248;19.032;2024-03-02T03:25:05;49.59;45.92;56.40;;
76339;Laerm;26644;50.248;19.032;2024-03-02T03:28:10;51.35;46.67;55.42;;
76339;Laerm;26644;50.248;19.032;2024-03-02T03:31:15;52.08;47.56;56.16;;
76339;Laerm;26644;50.248;19.032;2024-03-02T03:34:19;52.58;47.83;57.76;;
76339;Laerm;26644;50.248;19.032;2024-03-02T03:37:24;53.68;48.82;59.69;;
76339;Laerm;26644;50.248;19.032;2024-03-02T03:40:37;53.09;48.67;57.72;;
76339;Laerm;26644;50.248;19.032;2024-03-02T03:43:41;51.14;46.77;56.94;;
76339;Laerm;26644;50.248;19.032;2024-03-02T03:46:46;51.77;47.23;56.26;;
76339;Laerm;26644;50.248;19.032;2024-03-02T03:49:50;52.43;46.54;69.78;;
76339;Laerm;26644;50.248;19.032;2024-03-02T03:52:55;51.11;47.91;56.03;;
76339;Laerm;26644;50.248;19.032;2024-03-02T03:56:02;52.13;47.88;58.62;;
76339;Laerm;26644;50.248;19.032;2024-03-02T03:59:07;50.98;46.91;55.95;;
76339;Laerm;26644;50.248;19.032;2024-03-02T04:02:11;50.50;46.63;55.07;;
76339;Laerm;26644;50.248;19.032;2024-03-02T04:05:16;51.76;47.47;56.56;;
76339;Laerm;26644;50.248;19.032;2024-03-02T04:08:20;51.72;47.73;60.76;;
76339;Laerm;26644;50.248;19.032;2024-03-02T04:11:28;52.51;48.91;60.12;;
76339;Laerm;26644;50.248;19.032;2024-03-02T04:14:32;51.84;47.63;63.04;;
76339;Laerm;26644;50.248;19.032;2024-03-02T04:17:37;52.53;48.99;56.69;;
76339;Laerm;26644;50.248;19.032;2024-03-02T04:20:41;52.15;48.12;56.75;;
76339;Laerm;26644;50.248;19.032;2024-03-02T04:23:46;52.07;48.96;55.90;;
76339;Laerm;26644;50.248;19.032;2024-03-02T04:26:53;52.37;48.64;60.51;;
76339;Laerm;26644;50.248;19.032;2024-03-02T04:29:58;51.96;48.16;55.86;;
76339;Laerm;26644;50.248;19.032;2024-03-02T04:33:02;52.38;48.69;58.17;;
76339;Laerm;26644;50.248;19.032;2024-03-02T04:36:09;53.55;49.50;58.48;;
76339;Laerm;26644;50.248;19.032;2024-03-02T04:39:13;53.27;50.29;57.72;;
76339;Laerm;26644;50.248;19.032;2024-03-02T04:42:21;52.89;49.27;61.55;;
76339;Laerm;26644;50.248;19.032;2024-03-02T04:45:26;52.81;48.14;56.64;;
76339;Laerm;26644;50.248;19.032;2024-03-02T04:48:31;51.68;48.03;55.73;;
76339;Laerm;26644;50.248;19.032;2024-03-02T04:51:35;51.92;47.44;58.33;;
76339;Laerm;26644;50.248;19.032;2024-03-02T04:54:40;52.02;45.99;73.92;;
76339;Laerm;26644;50.248;19.032;2024-03-02T04:57:59;52.18;48.53;59.96;;
76339;Laerm;26644;50.248;19.032;2024-03-02T05:01:04;52.22;47.84;58.56;;
76339;Laerm;26644;50.248;19.032;2024-03-02T05:04:08;52.41;48.26;55.80;;
76339;Laerm;26644;50.248;19.032;2024-03-02T05:07:13;52.63;48.35;63.97;;
76339;Laerm;26644;50.248;19.032;2024-03-02T05:10:18;54.27;49.28;67.99;;
76339;Laerm;26644;50.248;19.032;2024-03-02T05:13:25;53.38;49.72;59.63;;
76339;Laerm;26644;50.248;19.032;2024-03-02T05:16:32;53.14;49.78;62.23;;
76339;Laerm;26644;50.248;19.032;2024-03-02T05:19:37;53.07;49.73;59.41;;
76339;Laerm;26644;50.248;19.032;2024-03-02T05:22:41;53.97;49.61;63.40;;
76339;Laerm;26644;50.248;19.032;2024-03-02T05:25:46;55.61;50.82;62.22;;
76339;Laerm;26644;50.248;19.032;2024-03-02T05:28:53;54.23;50.38;61.93;;
76339;Laerm;26644;50.248;19.032;2024-03-02T05:31:58;54.65;49.17;65.70;;
76339;Laerm;26644;50.248;19.032;2024-03-02T05:35:02;54.34;50.09;62.56;;
76339;Laerm;26644;50.248;19.032;2024-03-02T05:38:07;53.53;50.19;60.09;;
76339;Laerm;26644;50.248;19.032;2024-03-02T05:41:11;53.42;49.95;58.64;;
76339;Laerm;26644;50.248;19.032;2024-03-02T05:44:19;54.57;50.63;60.22;;
76339;Laerm;26644;50.248;19.032;2024-03-02T05:47:23;54.50;51.41;57.83;;
76339;Laerm;26644;50.248;19.032;2024-03-02T05:50:29;53.69;49.61;58.71;;
76339;Laerm;26644;50.248;19.032;2024-03-02T05:53:33;53.67;49.58;64.91;;
76339;Laerm;26644;50.248;19.032;2024-03-02T05:56:40;53.30;49.78;61.16;;
76339;Laerm;26644;50.248;19.032;2024-03-02T05:59:46;53.69;50.50;58.06;;
76339;Laerm;26644;50.248;19.032;2024-03-02T06:02:51;53.95;49.80;60.38;;
76339;Laerm;26644;50.248;19.032;2024-03-02T06:05:55;53.63;50.12;59.95;;
76339;Laerm;26644;50.248;19.032;2024-03-02T06:09:01;53.44;50.22;59.40;;
76339;Laerm;26644;50.248;19.032;2024-03-02T06:12:08;54.03;50.38;62.98;;
76339;Laerm;26644;50.248;19.032;2024-03-02T06:15:16;53.66;50.02;60.68;;
76339;Laerm;26644;50.248;19.032;2024-03-02T06:18:20;54.32;51.01;60.56;;
76339;Laerm;26644;50.248;19.032;2024-03-02T06:21:25;53.52;50.01;60.39;;
76339;Laerm;26644;50.248;19.032;2024-03-02T06:24:29;54.18;50.43;63.62;;
76339;Laerm;26644;50.248;19.032;2024-03-02T06:27:34;52.83;49.46;60.06;;
76339;Laerm;26644;50.248;19.032;2024-03-02T06:30:41;53.88;50.10;62.17;;
76339;Laerm;26644;50.248;19.032;2024-03-02T06:33:47;53.90;50.28;64.15;;
76339;Laerm;26644;50.248;19.032;2024-03-02T06:36:51;55.63;50.56;69.12;;
76339;Laerm;26644;50.248;19.032;2024-03-02T06:39:56;53.71;49.93;63.88;;
76339;Laerm;26644;50.248;19.032;2024-03-02T06:43:00;53.52;50.16;57.70;;
76339;Laerm;26644;50.248;19.032;2024-03-02T06:46:07;54.77;50.61;69.26;;
76339;Laerm;26644;50.248;19.032;2024-03-02T06:49:15;54.07;49.78;69.66;;
76339;Laerm;26644;50.248;19.032;2024-03-02T06:52:20;54.18;51.20;59.48;;
76339;Laerm;26644;50.248;19.032;2024-03-02T06:55:24;54.86;51.48;59.44;;
76339;Laerm;26644;50.248;19.032;2024-03-02T06:58:29;54.39;50.99;58.15;;
76339;Laerm;26644;50.248;19.032;2024-03-02T07:01:37;53.21;49.39;63.98;;
76339;Laerm;26644;50.248;19.032;2024-03-02T07:04:42;52.71;48.88;58.77;;
76339;Laerm;26644;50.248;19.032;2024-03-02T07:07:46;53.85;49.69;61.44;;
76339;Laerm;26644;50.248;19.032;2024-03-02T07:10:51;53.73;50.08;61.08;;
76339;Laerm;26644;50.248;19.032;2024-03-02T07:13:55;53.88;49.69;77.16;;
76339;Laerm;26644;50.248;19.032;2024-03-02T07:17:03;58.57;49.85;78.66;;
76339;Laerm;26644;50.248;19.032;2024-03-02T07:20:09;53.62;50.34;59.51;;
76339;Laerm;26644;50.248;19.032;2024-03-02T07:23:14;53.96;50.62;61.01;;
76339;Laerm;26644;50.248;19.032;2024-03-02T07:26:19;53.69;49.86;61.87;;
76339;Laerm;26644;50.248;19.032;2024-03-02T07:29:25;53.62;50.77;57.88;;
76339;Laerm;26644;50.248;19.032;2024-03-02T07:32:31;53.77;49.83;59.78;;
76339;Laerm;26644;50.248;19.032;2024-03-02T07:35:36;53.41;49.95;58.18;;
76339;Laerm;26644;50.248;19.032;2024-03-02T07:38:41;53.33;50.04;61.06;;
76339;Laerm;26644;50.248;19.032;2024-03-02T07:41:47;54.40;50.55;62.06;;
76339;Laerm;26644;50.248;19.032;2024-03-02T07:44:51;54.02;50.45;70.83;;
76339;Laerm;26644;50.248;19.032;2024-03-02T07:47:58;54.12;49.81;63.33;;
76339;Laerm;26644;50.248;19.032;2024-03-02T07:51:05;54.64;51.38;66.04;;
76339;Laerm;26644;50.248;19.032;2024-03-02T07:54:10;53.90;50.02;57.06;;
76339;Laerm;26644;50.248;19.032;2024-03-02T07:57:14;54.16;50.97;70.09;;
76339;Laerm;26644;50.248;19.032;2024-03-02T08:00:19;53.65;49.54;64.53;;
76339;Laerm;26644;50.248;19.032;2024-03-02T08:03:26;53.90;50.61;64.18;;
76339;Laerm;26644;50.248;19.032;2024-03-02T08:06:31;54.16;50.04;64.13;;
76339;Laerm;26644;50.248;19.032;2024-03-02T08:09:36;54.24;50.83;63.42;;
76339;Laerm;26644;50.248;19.032;2024-03-02T08:12:41;53.88;50.40;63.16;;
76339;Laerm;26644;50.248;19.032;2024-03-02T08:15:45;54.13;49.50;63.90;;
76339;Laerm;26644;50.248;19.032;2024-03-02T08:18:53;54.05;50.54;61.73;;
76339;Laerm;26644;50.248;19.032;2024-03-02T08:21:59;53.98;50.05;62.15;;
76339;Laerm;26644;50.248;19.032;2024-03-02T08:25:05;53.64;49.83;60.08;;
76339;Laerm;26644;50.248;19.032;2024-03-02T08:28:09;53.18;48.59;62.28;;
76339;Laerm;26644;50.248;19.032;2024-03-02T08:31:14;53.92;50.30;61.87;;
76339;Laerm;26644;50.248;19.032;2024-03-02T08:34:21;53.46;50.26;59.19;;
76339;Laerm;26644;50.248;19.032;2024-03-02T08:37:26;54.98;50.62;61.04;;
76339;Laerm;26644;50.248;19.032;2024-03-02T08:40:30;53.87;50.22;60.50;;
76339;Laerm;26644;50.248;19.032;2024-03-02T08:43:36;53.90;49.87;59.31;;
76339;Laerm;26644;50.248;19.032;2024-03-02T08:46:41;53.97;50.09;64.29;;
76339;Laerm;26644;50.248;19.032;2024-03-02T08:49:49;59.41;51.23;72.05;;
76339;Laerm;26644;50.248;19.032;2024-03-02T08:52:53;56.12;50.76;74.91;;
76339;Laerm;26644;50.248;19.032;2024-03-02T08:55:58;55.87;50.53;66.40;;
76339;Laerm;26644;50.248;19.032;2024-03-02T08:59:02;55.21;49.97;62.66;;
76339;Laerm;26644;50.248;19.032;2024-03-02T09:02:08;55.02;50.74;63.14;;
76339;Laerm;26644;50.248;19.032;2024-03-02T09:05:15;55.34;51.02;70.09;;
76339;Laerm;26644;50.248;19.032;2024-03-02T09:08:20;54.50;50.85;66.36;;
76339;Laerm;26644;50.248;19.032;2024-03-02T09:11:24;54.44;50.15;64.45;;
76339;Laerm;26644;50.248;19.032;2024-03-02T09:14:29;58.10;49.74;76.31;;
76339;Laerm;26644;50.248;19.032;2024-03-02T09:17:34;54.56;49.91;59.96;;
76339;Laerm;26644;50.248;19.032;2024-03-02T09:20:41;57.06;50.16;75.26;;
76339;Laerm;26644;50.248;19.032;2024-03-02T09:23:45;55.08;50.82;61.82;;
76339;Laerm;26644;50.248;19.032;2024-03-02T09:26:50;54.81;49.63;67.68;;
76339;Laerm;26644;50.248;19.032;2024-03-02T09:29:55;54.61;49.99;65.86;;
76339;Laerm;26644;50.248;19.032;2024-03-02T09:33:00;55.22;49.98;73.32;;
76339;Laerm;26644;50.248;19.032;2024-03-02T09:36:17;53.68;50.63;61.51;;
76339;Laerm;26644;50.248;19.032;2024-03-02T09:39:22;55.18;50.45;64.43;;
76339;Laerm;26644;50.248;19.032;2024-03-02T09:42:26;56.05;51.19;67.62;;
76339;Laerm;26644;50.248;19.032;2024-03-02T09:45:31;55.39;50.78;65.61;;
76339;Laerm;26644;50.248;19.032;2024-03-02T09:48:36;55.20;51.55;64.39;;
76339;Laerm;26644;50.248;19.032;2024-03-02T09:51:48;54.44;51.36;62.47;;
76339;Laerm;26644;50.248;19.032;2024-03-02T09:54:52;54.21;50.46;59.50;;
76339;Laerm;26644;50.248;19.032;2024-03-02T09:57:57;55.78;51.33;73.88;;
76339;Laerm;26644;50.248;19.032;2024-03-02T10:01:01;54.80;51.51;63.17;;
76339;Laerm;26644;50.248;19.032;2024-03-02T10:04:12;55.35;50.78;77.80;;
76339;Laerm;26644;50.248;19.032;2024-03-02T10:07:19;54.43;50.63;63.47;;
76339;Laerm;26644;50.248;19.032;2024-03-02T10:10:34;53.95;50.06;57.79;;
76339;Laerm;26644;50.248;19.032;2024-03-02T10:13:41;54.28;50.45;60.81;;
76339;Laerm;26644;50.248;19.032;2024-03-02T10:16:46;54.35;49.64;66.95;;
76339;Laerm;26644;50.248;19.032;2024-03-02T10:19:50;54.18;50.03;59.45;;
76339;Laerm;26644;50.248;19.032;2024-03-02T10:23:10;54.42;50.95;61.21;;
76339;Laerm;26644;50.248;19.032;2024-03-02T10:26:17;55.31;51.02;68.65;;
76339;Laerm;26644;50.248;19.032;2024-03-02T10:29:23;54.99;50.68;65.91;;
76339;Laerm;26644;50.248;19.032;2024-03-02T10:32:29;54.28;51.23;61.30;;
76339;Laerm;26644;50.248;19.032;2024-03-02T10:35:35;56.20;51.56;71.18;;
76339;Laerm;26644;50.248;19.032;2024-03-02T10:38:44;55.10;51.61;67.68;;
76339;Laerm;26644;50.248;19.032;2024-03-02T10:41:52;56.17;50.99;64.63;;
76339;Laerm;26644;50.248;19.032;2024-03-02T10:44:57;55.15;51.48;70.60;;
76339;Laerm;26644;50.248;19.032;2024-03-02T10:48:02;55.08;51.20;60.59;;
76339;Laerm;26644;50.248;19.032;2024-03-02T10:51:07;55.16;50.57;60.98;;
76339;Laerm;26644;50.248;19.032;2024-03-02T10:54:15;56.30;51.81;72.66;;
76339;Laerm;26644;50.248;19.032;2024-03-02T10:57:23;56.08;51.50;68.24;;
76339;Laerm;26644;50.248;19.032;2024-03-02T11:00:38;62.72;51.08;79.52;;
76339;Laerm;26644;50.248;19.032;2024-03-02T11:03:45;58.75;50.98;77.10;;
76339;Laerm;26644;50.248;19.032;2024-03-02T11:06:51;55.37;51.77;59.25;;
76339;Laerm;26644;50.248;19.032;2024-03-02T11:10:01;56.24;52.50;67.09;;
76339;Laerm;26644;50.248;19.032;2024-03-02T11:13:12;55.08;51.70;61.20;;
76339;Laerm;26644;50.248;19.032;2024-03-02T11:16:30;55.50;51.57;60.62;;
76339;Laerm;26644;50.248;19.032;2024-03-02T11:19:39;55.49;51.88;63.41;;
76339;Laerm;26644;50.248;19.032;2024-03-02T11:22:44;55.48;52.05;69.15;;
76339;Laerm;26644;50.248;19.032;2024-03-02T11:25:52;55.08;51.38;59.91;;
76339;Laerm;26644;50.248;19.032;2024-03-02T11:28:56;55.49;51.83;61.03;;
76339;Laerm;26644;50.248;19.032;2024-03-02T11:32:04;55.63;51.79;65.51;;
76339;Laerm;26644;50.248;19.032;2024-03-02T11:35:09;55.58;51.08;71.32;;
76339;Laerm;26644;50.248;19.032;2024-03-02T11:38:14;54.79;51.23;70.04;;
76339;Laerm;26644;50.248;19.032;2024-03-02T11:41:22;54.94;51.06;61.65;;
76339;Laerm;26644;50.248;19.032;2024-03-02T11:44:29;54.89;51.68;63.37;;
76339;Laerm;26644;50.248;19.032;2024-03-02T11:47:36;57.01;51.15;77.05;;
76339;Laerm;26644;50.248;19.032;2024-03-02T11:50:47;55.47;52.00;70.11;;
76339;Laerm;26644;50.248;19.032;2024-03-02T11:53:56;55.57;50.84;74.83;;
76339;Laerm;26644;50.248;19.032;2024-03-02T11:57:05;54.10;50.49;57.99;;
76339;Laerm;26644;50.248;19.032;2024-03-02T12:00:17;54.76;51.16;61.52;;
76339;Laerm;26644;50.248;19.032;2024-03-02T12:03:24;54.94;51.35;63.51;;
76339;Laerm;26644;50.248;19.032;2024-03-02T12:06:30;56.52;51.05;71.80;;
76339;Laerm;26644;50.248;19.032;2024-03-02T12:09:35;56.10;51.22;75.93;;
76339;Laerm;26644;50.248;19.032;2024-03-02T12:12:42;54.60;51.16;59.68;;
76339;Laerm;26644;50.248;19.032;2024-03-02T12:15:47;55.03;51.05;58.53;;
76339;Laerm;26644;50.248;19.032;2024-03-02T12:18:51;54.95;51.57;61.05;;
76339;Laerm;26644;50.248;19.032;2024-03-02T12:21:56;55.99;50.74;68.60;;
76339;Laerm;26644;50.248;19.032;2024-03-02T12:25:01;55.04;51.97;59.54;;
76339;Laerm;26644;50.248;19.032;2024-03-02T12:28:09;55.35;52.31;58.10;;
76339;Laerm;26644;50.248;19.032;2024-03-02T12:31:13;55.08;51.41;58.70;;
76339;Laerm;26644;50.248;19.032;2024-03-02T12:34:19;55.79;51.83;62.72;;
76339;Laerm;26644;50.248;19.032;2024-03-02T12:37:24;56.03;51.86;70.58;;
76339;Laerm;26644;50.248;19.032;2024-03-02T12:40:31;55.30;51.81;60.98;;
76339;Laerm;26644;50.248;19.032;2024-03-02T12:43:38;56.01;52.08;60.51;;
76339;Laerm;26644;50.248;19.032;2024-03-02T12:46:44;56.09;51.94;67.54;;
76339;Laerm;26644;50.248;19.032;2024-03-02T12:49:49;55.69;52.19;60.60;;
76339;Laerm;26644;50.248;19.032;2024-03-02T12:52:55;55.85;51.67;60.25;;
76339;Laerm;26644;50.248;19.032;2024-03-02T12:55:59;55.94;51.49;64.65;;
76339;Laerm;26644;50.248;19.032;2024-03-02T12:59:08;55.52;51.54;60.55;;
76339;Laerm;26644;50.248;19.032;2024-03-02T13:02:17;56.19;51.23;64.12;;
76339;Laerm;26644;50.248;19.032;2024-03-02T13:05:22;57.63;51.76;79.80;;
76339;Laerm;26644;50.248;19.032;2024-03-02T13:08:27;55.78;51.71;62.39;;
76339;Laerm;26644;50.248;19.032;2024-03-02T13:11:32;56.09;51.68;61.14;;
76339;Laerm;26644;50.248;19.032;2024-03-02T13:14:40;55.90;51.21;60.51;;
76339;Laerm;26644;50.248;19.032;2024-03-02T13:17:45;55.94;51.90;74.50;;
76339;Laerm;26644;50.248;19.032;2024-03-02T13:20:50;55.68;52.10;64.74;;
76339;Laerm;26644;50.248;19.032;2024-03-02T13:23:55;55.73;51.46;61.46;;
76339;Laerm;26644;50.248;19.032;2024-03-02T13:26:59;54.99;51.21;59.43;;
76339;Laerm;26644;50.248;19.032;2024-03-02T13:30:10;55.75;50.83;76.20;;
76339;Laerm;26644;50.248;19.032;2024-03-02T13:33:14;55.54;51.81;63.14;;
76339;Laerm;26644;50.248;19.032;2024-03-02T13:36:23;55.76;51.05;59.86;;
76339;Laerm;26644;50.248;19.032;2024-03-02T13:39:27;55.95;52.63;66.39;;
76339;Laerm;26644;50.248;19.032;2024-03-02T13:42:33;55.82;52.33;60.68;;
76339;Laerm;26644;50.248;19.032;2024-03-02T13:45:40;55.19;51.86;59.91;;
76339;Laerm;26644;50.248;19.032;2024-03-02T13:48:45;55.68;50.76;61.79;;
76339;Laerm;26644;50.248;19.032;2024-03-02T13:51:49;55.23;51.44;62.16;;
76339;Laerm;26644;50.248;19.032;2024-03-02T13:54:54;54.77;51.78;60.22;;
76339;Laerm;26644;50.248;19.032;2024-03-02T13:57:58;55.97;52.16;63.90;;
76339;Laerm;26644;50.248;19.032;2024-03-02T14:01:06;55.69;51.80;63.74;;
76339;Laerm;26644;50.248;19.032;2024-03-02T14:04:10;54.71;51.62;64.29;;
76339;Laerm;26644;50.248;19.032;2024-03-02T14:07:15;55.38;51.66;60.83;;
76339;Laerm;26644;50.248;19.032;2024-03-02T14:10:20;55.51;51.53;65.00;;
76339;Laerm;26644;50.248;19.032;2024-03-02T14:13:26;56.21;52.47;69.02;;
76339;Laerm;26644;50.248;19.032;2024-03-02T14:16:32;55.90;52.18;61.43;;
76339;Laerm;26644;50.248;19.032;2024-03-02T14:19:38;54.90;51.80;66.13;;
76339;Laerm;26644;50.248;19.032;2024-03-02T14:22:42;55.77;52.12;60.54;;
76339;Laerm;26644;50.248;19.032;2024-03-02T14:25:48;55.25;51.49;61.49;;
76339;Laerm;26644;50.248;19.032;2024-03-02T14:28:52;54.49;50.89;59.94;;
76339;Laerm;26644;50.248;19.032;2024-03-02T14:31:59;55.54;51.70;62.61;;
76339;Laerm;26644;50.248;19.032;2024-03-02T14:35:05;55.57;52.49;64.13;;
76339;Laerm;26644;50.248;19.032;2024-03-02T14:38:12;54.92;51.38;63.77;;
76339;Laerm;26644;50.248;19.032;2024-03-02T14:41:17;54.88;51.17;62.91;;
76339;Laerm;26644;50.248;19.032;2024-03-02T14:44:22;54.13;50.35;60.18;;
76339;Laerm;26644;50.248;19.032;2024-03-02T14:47:28;54.15;50.78;59.50;;
76339;Laerm;26644;50.248;19.032;2024-03-02T14:50:33;52.89;49.25;62.09;;
76339;Laerm;26644;50.248;19.032;2024-03-02T14:53:38;54.20;50.46;65.37;;
76339;Laerm;26644;50.248;19.032;2024-03-02T14:56:43;53.89;49.96;60.90;;
76339;Laerm;26644;50.248;19.032;2024-03-02T14:59:47;53.24;50.19;58.90;;
76339;Laerm;26644;50.248;19.032;2024-03-02T15:02:55;54.63;50.81;61.08;;
76339;Laerm;26644;50.248;19.032;2024-03-02T15:05:59;53.29;49.88;61.92;;
76339;Laerm;26644;50.248;19.032;2024-03-02T15:09:06;53.15;49.41;59.81;;
76339;Laerm;26644;50.248;19.032;2024-03-02T15:12:10;52.89;48.20;59.11;;
76339;Laerm;26644;50.248;19.032;2024-03-02T15:15:16;52.49;48.58;58.78;;
76339;Laerm;26644;50.248;19.032;2024-03-02T15:18:23;53.70;49.70;63.81;;
76339;Laerm;26644;50.248;19.032;2024-03-02T15:21:28;53.44;49.92;62.11;;
76339;Laerm;26644;50.248;19.032;2024-03-02T15:24:33;53.26;49.18;61.01;;
76339;Laerm;26644;50.248;19.032;2024-03-02T15:27:38;53.88;49.02;66.10;;
76339;Laerm;26644;50.248;19.032;2024-03-02T15:30:42;53.65;49.78;62.37;;
76339;Laerm;26644;50.248;19.032;2024-03-02T15:33:49;54.13;50.12;73.62;;
76339;Laerm;26644;50.248;19.032;2024-03-02T15:36:54;52.90;49.75;60.68;;
76339;Laerm;26644;50.248;19.032;2024-03-02T15:39:59;53.25;48.97;60.91;;
76339;Laerm;26644;50.248;19.032;2024-03-02T15:43:07;53.42;49.38;64.54;;
76339;Laerm;26644;50.248;19.032;2024-03-02T15:46:12;52.98;48.47;60.10;;
76339;Laerm;26644;50.248;19.032;2024-03-02T15:49:19;52.58;48.77;58.06;;
76339;Laerm;26644;50.248;19.032;2024-03-02T15:52:24;53.68;48.51;74.83;;
76339;Laerm;26644;50.248;19.032;2024-03-02T15:55:28;53.53;49.77;61.26;;
76339;Laerm;26644;50.248;19.032;2024-03-02T15:58:33;53.63;49.88;61.92;;
76339;Laerm;26644;50.248;19.032;2024-03-02T16:01:38;53.45;50.34;63.10;;
76339;Laerm;26644;50.248;19.032;2024-03-02T16:04:46;53.94;48.81;61.06;;
76339;Laerm;26644;50.248;19.032;2024-03-02T16:07:50;53.45;49.97;66.66;;
76339;Laerm;26644;50.248;19.032;2024-03-02T16:10:55;53.46;49.35;57.98;;
76339;Laerm;26644;50.248;19.032;2024-03-02T16:14:00;53.20;50.31;62.61;;
76339;Laerm;26644;50.248;19.032;2024-03-02T16:17:05;53.67;50.18;64.41;;
76339;Laerm;26644;50.248;19.032;2024-03-02T16:20:12;53.14;49.29;60.25;;
76339;Laerm;26644;50.248;19.032;2024-03-02T16:23:17;53.19;49.35;60.88;;
76339;Laerm;26644;50.248;19.032;2024-03-02T16:26:21;53.23;48.62;66.70;;
76339;Laerm;26644;50.248;19.032;2024-03-02T16:29:26;52.55;49.90;59.92;;
76339;Laerm;26644;50.248;19.032;2024-03-02T16:32:30;55.75;48.62;72.44;;
76339;Laerm;26644;50.248;19.032;2024-03-02T16:35:38;53.33;49.20;71.62;;
76339;Laerm;26644;50.248;19.032;2024-03-02T16:38:42;52.83;48.47;66.64;;
76339;Laerm;26644;50.248;19.032;2024-03-02T16:41:49;55.40;48.34;80.38;;
76339;Laerm;26644;50.248;19.032;2024-03-02T16:44:53;56.38;50.35;74.19;;
76339;Laerm;26644;50.248;19.032;2024-03-02T16:47:59;52.39;48.54;65.73;;
76339;Laerm;26644;50.248;19.032;2024-03-02T16:51:06;53.18;49.70;60.87;;
76339;Laerm;26644;50.248;19.032;2024-03-02T16:54:11;53.19;49.51;67.89;;
76339;Laerm;26644;50.248;19.032;2024-03-02T16:57:15;52.02;47.95;63.01;;
76339;Laerm;26644;50.248;19.032;2024-03-02T17:00:20;52.93;48.52;62.73;;
76339;Laerm;26644;50.248;19.032;2024-03-02T17:03:25;53.28;49.20;61.09;;
76339;Laerm;26644;50.248;19.032;2024-03-02T17:06:33;52.70;48.76;57.87;;